Time,TemperatureF,DewpointF,PressureIn,WindDirection,WindDirectionDegrees,WindSpeedMPH,WindSpeedGustMPH,Humidity,HourlyPrecipIn,Conditions,Clouds,dailyrainin,SolarRadiationWatts/m^2,SoftwareType,DateUTC
2013-01-23 00:03:00,45.6,32.9,30.32,NNW,329,0.0,0.0,61,0.00,,,0.00,0,Wunderground v.1.15,2013-01-23 05:03:00,
2013-01-23 00:08:00,45.6,32.9,30.32,NNW,329,0.0,0.0,61,0.00,,,0.00,0,Wunderground v.1.15,2013-01-23 05:08:00,
2013-01-23 00:13:00,45.6,32.9,30.31,NNW,329,0.0,0.0,61,0.00,,,0.00,0,Wunderground v.1.15,2013-01-23 05:13:00,
2013-01-23 00:18:00,45.6,32.9,30.32,NNW,329,0.0,0.0,61,0.00,,,0.00,0,Wunderground v.1.15,2013-01-23 05:18:00,
2013-01-23 00:28:00,45.4,32.7,30.32,NNW,329,0.0,0.0,61,0.00,,,0.00,0,Wunderground v.1.15,2013-01-23 05:28:00,
2013-01-23 00:33:00,45.2,32.5,30.32,NNW,329,0.0,0.0,61,0.00,,,0.00,0,Wunderground v.1.15,2013-01-23 05:33:00,
2013-01-23 00:43:00,45.0,32.8,30.32,NNW,329,0.0,0.0,62,0.00,,,0.00,0,Wunderground v.1.15,2013-01-23 05:43:00,
2013-01-23 00:48:00,44.9,32.7,30.31,NNW,329,0.0,0.0,62,0.00,,,0.00,0,Wunderground v.1.15,2013-01-23 05:48:00,
2013-01-23 00:58:00,44.7,32.5,30.32,NNW,329,0.0,0.0,62,0.00,,,0.00,0,Wunderground v.1.15,2013-01-23 05:58:00,
2013-01-23 01:03:00,44.5,32.3,30.32,NNW,329,0.0,0.0,62,0.00,,,0.00,0,Wunderground v.1.15,2013-01-23 06:03:00,
2013-01-23 01:13:00,44.3,32.1,30.32,NNW,329,0.0,0.0,62,0.00,,,0.00,0,Wunderground v.1.15,2013-01-23 06:13:00,
2013-01-23 01:18:00,44.2,32.0,30.32,NNW,329,0.0,0.0,62,0.00,,,0.00,0,Wunderground v.1.15,2013-01-23 06:18:00,
2013-01-23 01:23:00,44.1,32.3,30.32,NNW,329,0.0,0.0,63,0.00,,,0.00,0,Wunderground v.1.15,2013-01-23 06:23:00,
2013-01-23 01:28:00,44.0,31.8,30.32,NNW,329,0.0,0.0,62,0.00,,,0.00,0,Wunderground v.1.15,2013-01-23 06:28:00,
2013-01-23 01:33:00,44.0,32.2,30.32,NNW,329,0.0,0.0,63,0.00,,,0.00,0,Wunderground v.1.15,2013-01-23 06:33:00,
2013-01-23 01:43:00,43.8,32.4,30.32,NNW,329,0.0,0.0,64,0.00,,,0.00,0,Wunderground v.1.15,2013-01-23 06:43:00,
2013-01-23 01:48:00,43.7,32.7,30.32,NNW,329,0.0,0.0,65,0.00,,,0.00,0,Wunderground v.1.15,2013-01-23 06:48:00,
2013-01-23 01:53:00,43.6,32.6,30.32,NNW,329,0.0,0.0,65,0.00,,,0.00,0,Wunderground v.1.15,2013-01-23 06:53:00,
2013-01-23 01:58:00,43.4,32.4,30.32,NNW,329,0.0,0.0,65,0.00,,,0.00,0,Wunderground v.1.15,2013-01-23 06:58:00,
2013-01-23 02:03:00,43.2,32.6,30.32,NNW,329,0.0,0.0,66,0.00,,,0.00,0,Wunderground v.1.15,2013-01-23 07:03:00,
2013-01-23 02:13:00,43.0,32.4,30.32,NNW,329,0.0,0.0,66,0.00,,,0.00,0,Wunderground v.1.15,2013-01-23 07:13:00,
2013-01-23 02:18:00,42.9,32.3,30.33,NNW,329,0.0,0.0,66,0.00,,,0.00,0,Wunderground v.1.15,2013-01-23 07:18:00,
2013-01-23 02:23:00,42.7,32.5,30.33,NNW,329,0.0,0.0,67,0.00,,,0.00,0,Wunderground v.1.15,2013-01-23 07:23:00,
2013-01-23 02:33:00,42.5,32.7,30.32,NNW,329,0.0,0.0,68,0.00,,,0.00,0,Wunderground v.1.15,2013-01-23 07:33:00,
2013-01-23 02:43:00,42.3,32.1,30.33,NNW,329,0.0,0.0,67,0.00,,,0.00,0,Wunderground v.1.15,2013-01-23 07:43:00,
2013-01-23 02:48:00,42.2,32.0,30.33,NNW,329,0.0,0.0,67,0.00,,,0.00,0,Wunderground v.1.15,2013-01-23 07:48:00,
2013-01-23 02:58:00,41.9,31.7,30.33,NNW,329,0.0,0.0,67,0.00,,,0.00,0,Wunderground v.1.15,2013-01-23 07:58:00,
2013-01-23 03:03:00,41.8,31.6,30.32,NNW,329,0.0,0.0,67,0.00,,,0.00,0,Wunderground v.1.15,2013-01-23 08:03:00,
2013-01-23 03:13:00,41.6,32.2,30.32,NNW,329,0.0,0.0,69,0.00,,,0.00,0,Wunderground v.1.15,2013-01-23 08:13:00,
2013-01-23 03:18:00,41.4,32.0,30.32,NNW,329,0.0,0.0,69,0.00,,,0.00,0,Wunderground v.1.15,2013-01-23 08:18:00,
2013-01-23 03:28:00,41.1,31.7,30.32,NNW,329,0.0,0.0,69,0.00,,,0.00,0,Wunderground v.1.15,2013-01-23 08:28:00,
2013-01-23 03:33:00,40.9,31.9,30.33,NNW,329,0.0,0.0,70,0.00,,,0.00,0,Wunderground v.1.15,2013-01-23 08:33:00,
2013-01-23 03:43:00,40.5,31.5,30.33,NNW,329,0.0,0.0,70,0.00,,,0.00,0,Wunderground v.1.15,2013-01-23 08:43:00,
2013-01-23 03:48:00,40.2,31.2,30.33,NNW,329,0.0,0.0,70,0.00,,,0.00,0,Wunderground v.1.15,2013-01-23 08:48:00,
2013-01-23 03:58:00,39.9,31.3,30.33,NNW,329,0.0,0.0,71,0.00,,,0.00,0,Wunderground v.1.15,2013-01-23 08:58:00,
2013-01-23 04:03:00,39.7,31.4,30.33,NNW,329,0.0,0.0,72,0.00,,,0.00,0,Wunderground v.1.15,2013-01-23 09:03:00,
2013-01-23 04:13:00,39.5,31.6,30.33,NNW,329,0.0,0.0,73,0.00,,,0.00,0,Wunderground v.1.15,2013-01-23 09:13:00,
2013-01-23 04:18:00,39.4,31.1,30.33,NNW,329,0.0,0.0,72,0.00,,,0.00,0,Wunderground v.1.15,2013-01-23 09:18:00,
2013-01-23 04:28:00,39.4,31.5,30.33,NNW,329,0.0,0.0,73,0.00,,,0.00,0,Wunderground v.1.15,2013-01-23 09:28:00,
2013-01-23 04:33:00,39.4,31.5,30.33,NNW,329,0.0,0.0,73,0.00,,,0.00,0,Wunderground v.1.15,2013-01-23 09:33:00,
2013-01-23 04:43:00,39.2,31.3,30.33,NNW,329,0.0,0.0,73,0.00,,,0.00,0,Wunderground v.1.15,2013-01-23 09:43:00,
2013-01-23 04:48:00,39.2,31.3,30.33,NNW,329,0.0,0.0,73,0.00,,,0.00,0,Wunderground v.1.15,2013-01-23 09:48:00,
2013-01-23 04:58:00,39.0,31.1,30.33,NNW,329,0.0,0.0,73,0.00,,,0.00,0,Wunderground v.1.15,2013-01-23 09:58:00,
2013-01-23 05:03:00,38.9,31.0,30.33,NNW,329,0.0,0.0,73,0.00,,,0.00,0,Wunderground v.1.15,2013-01-23 10:03:00,
2013-01-23 05:13:00,38.7,30.8,30.33,NNW,329,0.0,0.0,73,0.00,,,0.00,0,Wunderground v.1.15,2013-01-23 10:13:00,
2013-01-23 05:18:00,38.6,31.0,30.33,NNW,329,0.0,0.0,74,0.00,,,0.00,0,Wunderground v.1.15,2013-01-23 10:18:00,
2013-01-23 05:28:00,38.4,30.8,30.33,NNW,329,0.0,0.0,74,0.00,,,0.00,0,Wunderground v.1.15,2013-01-23 10:28:00,
2013-01-23 05:33:00,38.3,31.1,30.34,NNW,329,0.0,0.0,75,0.00,,,0.00,0,Wunderground v.1.15,2013-01-23 10:33:00,
2013-01-23 05:43:00,38.2,31.0,30.34,NNW,329,0.0,0.0,75,0.00,,,0.00,0,Wunderground v.1.15,2013-01-23 10:43:00,
2013-01-23 05:48:00,38.2,31.3,30.34,NNW,329,0.0,0.0,76,0.00,,,0.00,0,Wunderground v.1.15,2013-01-23 10:48:00,
2013-01-23 05:58:00,38.2,31.6,30.34,NNW,329,0.0,0.0,77,0.00,,,0.00,0,Wunderground v.1.15,2013-01-23 10:58:00,
2013-01-23 06:03:00,38.2,31.9,30.34,NNW,329,0.0,0.0,78,0.00,,,0.00,0,Wunderground v.1.15,2013-01-23 11:03:00,
2013-01-23 06:13:00,38.2,32.3,30.35,NNW,329,0.0,0.0,79,0.00,,,0.00,0,Wunderground v.1.15,2013-01-23 11:13:00,
2013-01-23 06:23:00,38.1,31.8,30.35,NNW,329,0.0,0.0,78,0.00,,,0.00,0,Wunderground v.1.15,2013-01-23 11:23:00,
2013-01-23 06:28:00,38.1,31.8,30.35,NNW,329,0.0,0.0,78,0.00,,,0.00,0,Wunderground v.1.15,2013-01-23 11:28:00,
2013-01-23 06:33:00,38.2,31.9,30.36,NNW,329,0.0,0.0,78,0.00,,,0.00,0,Wunderground v.1.15,2013-01-23 11:33:00,
2013-01-23 06:43:00,38.3,32.0,30.36,NNW,329,0.0,0.0,78,0.00,,,0.00,0,Wunderground v.1.15,2013-01-23 11:43:00,
2013-01-23 06:48:00,38.2,31.6,30.36,NNW,329,0.0,0.0,77,0.00,,,0.00,0,Wunderground v.1.15,2013-01-23 11:48:00,
2013-01-23 06:58:00,38.1,31.2,30.37,NNW,329,0.0,0.0,76,0.00,,,0.00,0,Wunderground v.1.15,2013-01-23 11:58:00,
2013-01-23 07:03:00,38.1,30.9,30.37,NNW,329,0.0,0.0,75,0.00,,,0.00,0,Wunderground v.1.15,2013-01-23 12:03:00,
2013-01-23 07:13:00,38.2,30.3,30.37,NNW,329,0.0,0.0,73,0.00,,,0.00,0,Wunderground v.1.15,2013-01-23 12:13:00,
2013-01-23 07:18:00,38.4,30.5,30.37,NNW,329,0.0,0.0,73,0.00,,,0.00,0,Wunderground v.1.15,2013-01-23 12:18:00,
2013-01-23 07:28:00,38.6,30.7,30.38,NNW,329,0.0,0.0,73,0.00,,,0.00,7,Wunderground v.1.15,2013-01-23 12:28:00,
2013-01-23 07:33:00,38.7,30.4,30.38,NNW,329,0.0,0.0,72,0.00,,,0.00,9,Wunderground v.1.15,2013-01-23 12:33:00,
2013-01-23 07:43:00,38.8,30.5,30.38,NNW,329,0.0,0.0,72,0.00,,,0.00,14,Wunderground v.1.15,2013-01-23 12:43:00,
2013-01-23 07:48:00,38.9,30.3,30.39,NNW,329,0.0,0.0,71,0.00,,,0.00,18,Wunderground v.1.15,2013-01-23 12:48:00,
2013-01-23 07:58:00,39.0,30.4,30.39,NNW,329,0.0,0.0,71,0.00,,,0.00,21,Wunderground v.1.15,2013-01-23 12:58:00,
2013-01-23 08:03:00,39.1,30.1,30.39,NNW,329,0.0,0.0,70,0.00,,,0.00,23,Wunderground v.1.15,2013-01-23 13:03:00,
2013-01-23 08:13:00,39.3,30.0,30.39,NNW,329,0.0,0.0,69,0.00,,,0.00,26,Wunderground v.1.15,2013-01-23 13:13:00,
2013-01-23 08:18:00,39.7,30.0,30.39,NNW,329,1.0,1.0,68,0.00,,,0.00,28,Wunderground v.1.15,2013-01-23 13:18:00,
2013-01-23 08:28:00,40.2,29.7,30.40,NNW,329,0.0,1.0,66,0.00,,,0.00,32,Wunderground v.1.15,2013-01-23 13:28:00,
2013-01-23 08:33:00,40.5,30.0,30.40,NNW,329,0.0,1.0,66,0.00,,,0.00,33,Wunderground v.1.15,2013-01-23 13:33:00,
2013-01-23 08:43:00,41.3,30.0,30.40,NNW,329,1.0,1.0,64,0.00,,,0.00,35,Wunderground v.1.15,2013-01-23 13:43:00,
2013-01-23 08:48:00,41.6,29.9,30.41,NNW,329,1.0,2.0,63,0.00,,,0.00,37,Wunderground v.1.15,2013-01-23 13:48:00,
2013-01-23 08:58:00,42.2,29.7,30.41,NNW,329,1.0,1.0,61,0.00,,,0.00,39,Wunderground v.1.15,2013-01-23 13:58:00,
2013-01-23 09:03:00,42.6,29.7,30.41,NNW,329,1.0,1.0,60,0.00,,,0.00,40,Wunderground v.1.15,2013-01-23 14:03:00,
2013-01-23 09:13:00,43.4,30.0,30.42,NNW,329,0.0,3.0,59,0.00,,,0.00,46,Wunderground v.1.15,2013-01-23 14:13:00,
2013-01-23 09:18:00,43.9,29.6,30.42,NNW,329,1.0,3.0,57,0.00,,,0.00,44,Wunderground v.1.15,2013-01-23 14:18:00,
2013-01-23 09:28:00,44.4,29.7,30.42,NNW,329,1.0,3.0,56,0.00,,,0.00,47,Wunderground v.1.15,2013-01-23 14:28:00,
2013-01-23 09:33:00,44.8,29.6,30.42,NNW,329,2.0,3.0,55,0.00,,,0.00,70,Wunderground v.1.15,2013-01-23 14:33:00,
2013-01-23 09:43:00,45.5,29.8,30.42,NNW,329,2.0,3.0,54,0.00,,,0.00,51,Wunderground v.1.15,2013-01-23 14:43:00,
2013-01-23 09:48:00,45.8,30.1,30.42,NNW,329,1.0,3.0,54,0.00,,,0.00,134,Wunderground v.1.15,2013-01-23 14:48:00,
2013-01-23 09:58:00,46.9,29.7,30.43,NNW,329,1.0,1.0,51,0.00,,,0.00,441,Wunderground v.1.15,2013-01-23 14:58:00,
2013-01-23 10:03:00,47.8,29.5,30.43,NNW,329,1.0,5.0,49,0.00,,,0.00,466,Wunderground v.1.15,2013-01-23 15:03:00,
2013-01-23 10:13:00,49.3,29.4,30.43,NNW,329,1.0,2.0,46,0.00,,,0.00,490,Wunderground v.1.15,2013-01-23 15:13:00,
2013-01-23 10:18:00,49.6,29.6,30.43,NNW,329,2.0,2.0,46,0.00,,,0.00,501,Wunderground v.1.15,2013-01-23 15:18:00,
2013-01-23 10:28:00,50.6,30.0,30.43,NNW,329,1.0,3.0,45,0.00,,,0.00,524,Wunderground v.1.15,2013-01-23 15:28:00,
2013-01-23 10:33:00,50.9,29.7,30.43,NNW,329,1.0,3.0,44,0.00,,,0.00,536,Wunderground v.1.15,2013-01-23 15:33:00,
2013-01-23 10:43:00,51.9,30.1,30.43,NNW,329,1.0,3.0,43,0.00,,,0.00,555,Wunderground v.1.15,2013-01-23 15:43:00,
2013-01-23 10:48:00,52.4,30.5,30.43,NNW,329,1.0,3.0,43,0.00,,,0.00,566,Wunderground v.1.15,2013-01-23 15:48:00,
2013-01-23 10:53:00,52.8,29.7,30.43,NNW,329,1.0,1.0,41,0.00,,,0.00,575,Wunderground v.1.15,2013-01-23 15:53:00,
2013-01-23 11:03:00,53.1,30.6,30.43,NNW,329,0.0,0.0,42,0.00,,,0.00,594,Wunderground v.1.15,2013-01-23 16:03:00,
2013-01-23 11:13:00,54.2,31.0,30.43,NNW,329,0.0,0.0,41,0.00,,,0.00,606,Wunderground v.1.15,2013-01-23 16:13:00,
2013-01-23 11:18:00,54.7,31.4,30.42,NNW,329,0.0,0.0,41,0.00,,,0.00,615,Wunderground v.1.15,2013-01-23 16:18:00,
2013-01-23 11:28:00,55.3,31.4,30.42,NNW,329,0.0,0.0,40,0.00,,,0.00,629,Wunderground v.1.15,2013-01-23 16:28:00,
2013-01-23 11:33:00,56.2,32.2,30.42,NNW,329,0.0,0.0,40,0.00,,,0.00,635,Wunderground v.1.15,2013-01-23 16:33:00,
2013-01-23 11:43:00,56.4,31.7,30.41,NNW,329,0.0,0.0,39,0.00,,,0.00,643,Wunderground v.1.15,2013-01-23 16:43:00,
2013-01-23 11:48:00,56.0,31.4,30.41,NNW,329,0.0,0.0,39,0.00,,,0.00,647,Wunderground v.1.15,2013-01-23 16:48:00,
2013-01-23 11:58:00,57.4,32.0,30.41,NNW,329,0.0,6.0,38,0.00,,,0.00,656,Wunderground v.1.15,2013-01-23 16:58:00,
2013-01-23 12:03:00,58.0,31.2,30.40,NNW,329,1.0,1.0,36,0.00,,,0.00,657,Wunderground v.1.15,2013-01-23 17:03:00,
2013-01-23 12:13:00,58.2,30.7,30.40,NNW,329,2.0,2.0,35,0.00,,,0.00,663,Wunderground v.1.15,2013-01-23 17:13:00,
2013-01-23 12:18:00,58.4,30.8,30.39,NNW,329,1.0,2.0,35,0.00,,,0.00,663,Wunderground v.1.15,2013-01-23 17:18:00,
2013-01-23 12:28:00,59.5,31.8,30.38,NNW,329,0.0,4.0,35,0.00,,,0.00,668,Wunderground v.1.15,2013-01-23 17:28:00,
2013-01-23 12:38:00,59.2,30.8,30.38,NNW,329,1.0,1.0,34,0.00,,,0.00,664,Wunderground v.1.15,2013-01-23 17:38:00,
2013-01-23 12:43:00,59.3,31.6,30.37,NNW,329,0.0,2.0,35,0.00,,,0.00,666,Wunderground v.1.15,2013-01-23 17:43:00,
2013-01-23 12:48:00,59.5,31.1,30.37,NNW,329,1.0,2.0,34,0.00,,,0.00,664,Wunderground v.1.15,2013-01-23 17:48:00,
2013-01-23 12:58:00,59.8,32.1,30.36,NNW,329,1.0,1.0,35,0.00,,,0.00,663,Wunderground v.1.15,2013-01-23 17:58:00,
2013-01-23 13:03:00,60.2,32.4,30.35,NNW,329,1.0,1.0,35,0.00,,,0.00,661,Wunderground v.1.15,2013-01-23 18:03:00,
2013-01-23 13:13:00,60.7,32.9,30.35,NNW,329,1.0,1.0,35,0.00,,,0.00,656,Wunderground v.1.15,2013-01-23 18:13:00,
2013-01-23 13:18:00,61.4,33.5,30.34,NNW,329,0.0,1.0,35,0.00,,,0.00,652,Wunderground v.1.15,2013-01-23 18:18:00,
2013-01-23 13:28:00,61.6,32.9,30.34,NNW,328,1.0,1.0,34,0.00,,,0.00,643,Wunderground v.1.15,2013-01-23 18:28:00,
2013-01-23 13:33:00,61.7,32.3,30.34,NNW,328,2.0,2.0,33,0.00,,,0.00,636,Wunderground v.1.15,2013-01-23 18:33:00,
2013-01-23 13:43:00,62.3,35.0,30.33,NNW,328,1.0,1.0,36,0.00,,,0.00,624,Wunderground v.1.15,2013-01-23 18:43:00,
2013-01-23 13:48:00,63.0,34.9,30.33,NNW,328,1.0,1.0,35,0.00,,,0.00,619,Wunderground v.1.15,2013-01-23 18:48:00,
2013-01-23 13:58:00,62.7,33.9,30.32,NNW,330,1.0,1.0,34,0.00,,,0.00,601,Wunderground v.1.15,2013-01-23 18:58:00,
2013-01-23 14:03:00,63.2,34.3,30.32,NNW,330,0.0,0.0,34,0.00,,,0.00,596,Wunderground v.1.15,2013-01-23 19:03:00,
2013-01-23 14:13:00,63.2,34.3,30.32,West,274,2.0,2.0,34,0.00,,,0.00,580,Wunderground v.1.15,2013-01-23 19:13:00,
2013-01-23 14:18:00,62.9,34.1,30.31,West,276,2.0,2.0,34,0.00,,,0.00,571,Wunderground v.1.15,2013-01-23 19:18:00,
2013-01-23 14:28:00,63.2,35.8,30.31,West,276,1.0,1.0,36,0.00,,,0.00,552,Wunderground v.1.15,2013-01-23 19:28:00,
2013-01-23 14:33:00,63.2,35.1,30.31,West,276,1.0,4.0,35,0.00,,,0.00,538,Wunderground v.1.15,2013-01-23 19:33:00,
2013-01-23 14:43:00,63.6,35.4,30.31,West,276,0.0,0.0,35,0.00,,,0.00,519,Wunderground v.1.15,2013-01-23 19:43:00,
2013-01-23 14:48:00,63.6,35.4,30.30,West,276,0.0,0.0,35,0.00,,,0.00,506,Wunderground v.1.15,2013-01-23 19:48:00,
2013-01-23 14:58:00,63.8,36.3,30.30,West,276,1.0,2.0,36,0.00,,,0.00,483,Wunderground v.1.15,2013-01-23 19:58:00,
2013-01-23 15:03:00,63.5,35.3,30.30,West,276,1.0,1.0,35,0.00,,,0.00,469,Wunderground v.1.15,2013-01-23 20:03:00,
2013-01-23 15:13:00,64.2,36.7,30.30,West,276,0.0,2.0,36,0.00,,,0.00,441,Wunderground v.1.15,2013-01-23 20:13:00,
2013-01-23 15:18:00,64.3,37.5,30.30,West,276,0.0,2.0,37,0.00,,,0.00,429,Wunderground v.1.15,2013-01-23 20:18:00,
2013-01-23 15:23:00,64.5,36.9,30.30,WNW,285,2.0,2.0,36,0.00,,,0.00,418,Wunderground v.1.15,2013-01-23 20:23:00,
2013-01-23 15:28:00,64.2,37.4,30.30,WNW,286,2.0,2.0,37,0.00,,,0.00,403,Wunderground v.1.15,2013-01-23 20:28:00,
2013-01-23 15:38:00,64.3,38.1,30.30,WNW,295,1.0,1.0,38,0.00,,,0.00,374,Wunderground v.1.15,2013-01-23 20:38:00,
2013-01-23 15:43:00,64.2,38.0,30.30,WNW,295,0.0,0.0,38,0.00,,,0.00,357,Wunderground v.1.15,2013-01-23 20:43:00,
2013-01-23 15:48:00,64.0,37.9,30.30,WNW,295,0.0,0.0,38,0.00,,,0.00,343,Wunderground v.1.15,2013-01-23 20:48:00,
2013-01-23 15:58:00,64.0,37.9,30.30,WNW,295,0.0,1.0,38,0.00,,,0.00,309,Wunderground v.1.15,2013-01-23 20:58:00,
2013-01-23 16:03:00,63.6,38.2,30.29,WNW,295,0.0,0.0,39,0.00,,,0.00,274,Wunderground v.1.15,2013-01-23 21:03:00,
2013-01-23 16:13:00,63.5,38.7,30.29,WNW,295,1.0,1.0,40,0.00,,,0.00,102,Wunderground v.1.15,2013-01-23 21:13:00,
2013-01-23 16:18:00,63.5,39.4,30.29,WNW,295,0.0,1.0,41,0.00,,,0.00,65,Wunderground v.1.15,2013-01-23 21:18:00,
2013-01-23 16:28:00,63.4,39.3,30.29,WNW,295,0.0,0.0,41,0.00,,,0.00,58,Wunderground v.1.15,2013-01-23 21:28:00,
2013-01-23 16:38:00,63.0,39.5,30.29,WNW,295,1.0,1.0,42,0.00,,,0.00,54,Wunderground v.1.15,2013-01-23 21:38:00,
2013-01-23 16:43:00,62.8,38.7,30.29,WNW,295,0.0,0.0,41,0.00,,,0.00,51,Wunderground v.1.15,2013-01-23 21:43:00,
2013-01-23 16:48:00,62.8,39.4,30.29,WNW,295,0.0,0.0,42,0.00,,,0.00,51,Wunderground v.1.15,2013-01-23 21:48:00,
2013-01-23 16:58:00,62.5,39.1,30.29,WNW,295,1.0,1.0,42,0.00,,,0.00,51,Wunderground v.1.15,2013-01-23 21:58:00,
2013-01-23 17:03:00,62.5,39.7,30.29,WNW,295,1.0,1.0,43,0.00,,,0.00,54,Wunderground v.1.15,2013-01-23 22:03:00,
2013-01-23 17:13:00,62.3,39.5,30.30,WNW,295,1.0,1.0,43,0.00,,,0.00,35,Wunderground v.1.15,2013-01-23 22:13:00,
2013-01-23 17:18:00,62.2,40.0,30.30,WNW,295,0.0,1.0,44,0.00,,,0.00,30,Wunderground v.1.15,2013-01-23 22:18:00,
2013-01-23 17:28:00,61.8,39.6,30.30,WNW,295,0.0,3.0,44,0.00,,,0.00,23,Wunderground v.1.15,2013-01-23 22:28:00,
2013-01-23 17:38:00,61.3,39.8,30.30,WNW,295,0.0,0.0,45,0.00,,,0.00,16,Wunderground v.1.15,2013-01-23 22:38:00,
2013-01-23 17:43:00,61.1,39.6,30.30,WNW,295,0.0,0.0,45,0.00,,,0.00,12,Wunderground v.1.15,2013-01-23 22:43:00,
2013-01-23 17:48:00,60.8,39.3,30.30,WNW,295,0.0,0.0,45,0.00,,,0.00,9,Wunderground v.1.15,2013-01-23 22:48:00,
2013-01-23 17:58:00,60.4,39.5,30.30,WNW,295,0.0,0.0,46,0.00,,,0.00,0,Wunderground v.1.15,2013-01-23 22:58:00,
2013-01-23 18:03:00,60.2,39.9,30.30,WNW,295,0.0,0.0,47,0.00,,,0.00,0,Wunderground v.1.15,2013-01-23 23:03:00,
2013-01-23 18:13:00,59.6,39.9,30.30,WNW,295,0.0,0.0,48,0.00,,,0.00,0,Wunderground v.1.15,2013-01-23 23:13:00,
2013-01-23 18:18:00,59.3,39.6,30.30,WNW,295,0.0,0.0,48,0.00,,,0.00,0,Wunderground v.1.15,2013-01-23 23:18:00,
2013-01-23 18:28:00,58.7,40.1,30.30,WNW,295,0.0,0.0,50,0.00,,,0.00,0,Wunderground v.1.15,2013-01-23 23:28:00,
2013-01-23 18:33:00,58.4,40.3,30.30,WNW,295,0.0,0.0,51,0.00,,,0.00,0,Wunderground v.1.15,2013-01-23 23:33:00,
2013-01-23 18:43:00,57.6,40.6,30.30,WNW,295,0.0,0.0,53,0.00,,,0.00,0,Wunderground v.1.15,2013-01-23 23:43:00,
2013-01-23 18:53:00,56.6,41.1,30.30,WNW,295,0.0,0.0,56,0.00,,,0.00,0,Wunderground v.1.15,2013-01-23 23:53:00,
2013-01-23 18:58:00,56.1,40.6,30.30,WNW,295,0.0,0.0,56,0.00,,,0.00,0,Wunderground v.1.15,2013-01-23 23:58:00,
2013-01-23 19:03:00,55.6,40.6,30.30,WNW,295,0.0,0.0,57,0.00,,,0.00,0,Wunderground v.1.15,2013-01-24 00:03:00,
2013-01-23 19:13:00,55.0,40.9,30.30,WNW,295,0.0,0.0,59,0.00,,,0.00,0,Wunderground v.1.15,2013-01-24 00:13:00,
2013-01-23 19:18:00,54.6,41.0,30.30,WNW,295,0.0,0.0,60,0.00,,,0.00,0,Wunderground v.1.15,2013-01-24 00:18:00,
2013-01-23 19:28:00,53.8,41.9,30.30,WNW,295,0.0,0.0,64,0.00,,,0.00,0,Wunderground v.1.15,2013-01-24 00:28:00,
2013-01-23 19:33:00,53.5,42.0,30.30,WNW,295,0.0,0.0,65,0.00,,,0.00,0,Wunderground v.1.15,2013-01-24 00:33:00,
2013-01-23 19:43:00,52.9,42.2,30.30,WNW,295,0.0,0.0,67,0.00,,,0.00,0,Wunderground v.1.15,2013-01-24 00:43:00,
2013-01-23 19:48:00,52.5,42.2,30.29,WNW,295,0.0,0.0,68,0.00,,,0.00,0,Wunderground v.1.15,2013-01-24 00:48:00,
2013-01-23 19:58:00,52.0,42.5,30.29,WNW,295,0.0,0.0,70,0.00,,,0.00,0,Wunderground v.1.15,2013-01-24 00:58:00,
2013-01-23 20:03:00,51.6,42.5,30.30,WNW,295,0.0,0.0,71,0.00,,,0.00,0,Wunderground v.1.15,2013-01-24 01:03:00,
2013-01-23 20:13:00,51.1,42.4,30.30,WNW,295,0.0,0.0,72,0.00,,,0.00,0,Wunderground v.1.15,2013-01-24 01:13:00,
2013-01-23 20:18:00,50.9,42.6,30.30,WNW,295,0.0,0.0,73,0.00,,,0.00,0,Wunderground v.1.15,2013-01-24 01:18:00,
2013-01-23 20:28:00,50.4,42.1,30.30,WNW,295,0.0,0.0,73,0.00,,,0.00,0,Wunderground v.1.15,2013-01-24 01:28:00,
2013-01-23 20:33:00,50.1,42.1,30.30,WNW,295,0.0,0.0,74,0.00,,,0.00,0,Wunderground v.1.15,2013-01-24 01:33:00,
2013-01-23 20:43:00,49.7,41.7,30.30,WNW,295,0.0,0.0,74,0.00,,,0.00,0,Wunderground v.1.15,2013-01-24 01:43:00,
2013-01-23 20:48:00,49.5,41.9,30.30,WNW,295,0.0,0.0,75,0.00,,,0.00,0,Wunderground v.1.15,2013-01-24 01:48:00,
2013-01-23 20:58:00,49.2,41.6,30.30,WNW,295,0.0,0.0,75,0.00,,,0.00,0,Wunderground v.1.15,2013-01-24 01:58:00,
2013-01-23 21:04:00,49.0,41.8,30.30,WNW,295,0.0,0.0,76,0.00,,,0.00,0,Wunderground v.1.15,2013-01-24 02:04:00,
2013-01-23 21:13:00,48.7,41.8,30.31,WNW,295,0.0,0.0,77,0.00,,,0.00,0,Wunderground v.1.15,2013-01-24 02:13:00,
2013-01-23 21:18:00,48.5,41.6,30.31,WNW,295,0.0,0.0,77,0.00,,,0.00,0,Wunderground v.1.15,2013-01-24 02:18:00,
2013-01-23 21:28:00,48.3,42.1,30.31,WNW,295,0.0,0.0,79,0.00,,,0.00,0,Wunderground v.1.15,2013-01-24 02:28:00,
2013-01-23 21:33:00,48.2,42.0,30.31,WNW,295,0.0,0.0,79,0.00,,,0.00,0,Wunderground v.1.15,2013-01-24 02:33:00,
2013-01-23 21:43:00,47.9,42.0,30.31,WNW,295,0.0,0.0,80,0.00,,,0.00,0,Wunderground v.1.15,2013-01-24 02:43:00,
2013-01-23 21:48:00,47.8,41.9,30.31,WNW,295,0.0,0.0,80,0.00,,,0.00,0,Wunderground v.1.15,2013-01-24 02:48:00,
2013-01-23 21:58:00,47.7,42.5,30.31,WNW,295,0.0,0.0,82,0.00,,,0.00,0,Wunderground v.1.15,2013-01-24 02:58:00,
2013-01-23 22:03:00,47.6,42.7,30.31,WNW,295,0.0,0.0,83,0.00,,,0.00,0,Wunderground v.1.15,2013-01-24 03:03:00,
2013-01-23 22:13:00,47.5,42.6,30.31,WNW,295,0.0,0.0,83,0.00,,,0.00,0,Wunderground v.1.15,2013-01-24 03:13:00,
2013-01-23 22:18:00,47.4,42.5,30.31,WNW,295,0.0,0.0,83,0.00,,,0.00,0,Wunderground v.1.15,2013-01-24 03:18:00,
2013-01-23 22:28:00,47.2,42.6,30.31,WNW,295,0.0,0.0,84,0.00,,,0.00,0,Wunderground v.1.15,2013-01-24 03:28:00,
2013-01-23 22:33:00,47.1,42.5,30.31,WNW,295,0.0,0.0,84,0.00,,,0.00,0,Wunderground v.1.15,2013-01-24 03:33:00,
2013-01-23 22:43:00,46.9,42.3,30.31,WNW,295,0.0,0.0,84,0.00,,,0.00,0,Wunderground v.1.15,2013-01-24 03:43:00,
2013-01-23 22:48:00,46.7,42.4,30.31,WNW,295,0.0,0.0,85,0.00,,,0.00,0,Wunderground v.1.15,2013-01-24 03:48:00,
2013-01-23 22:58:00,46.5,42.2,30.31,WNW,295,0.0,0.0,85,0.00,,,0.00,0,Wunderground v.1.15,2013-01-24 03:58:00,
2013-01-23 23:03:00,46.3,42.0,30.31,WNW,295,0.0,0.0,85,0.00,,,0.00,0,Wunderground v.1.15,2013-01-24 04:03:00,
2013-01-23 23:13:00,46.1,41.8,30.31,WNW,295,0.0,0.0,85,0.00,,,0.00,0,Wunderground v.1.15,2013-01-24 04:13:00,
2013-01-23 23:18:00,46.0,41.7,30.31,WNW,295,0.0,0.0,85,0.00,,,0.00,0,Wunderground v.1.15,2013-01-24 04:18:00,
2013-01-23 23:28:00,45.8,41.5,30.30,WNW,295,0.0,0.0,85,0.00,,,0.00,0,Wunderground v.1.15,2013-01-24 04:28:00,
2013-01-23 23:33:00,45.7,41.4,30.30,WNW,295,0.0,0.0,85,0.00,,,0.00,0,Wunderground v.1.15,2013-01-24 04:33:00,
2013-01-23 23:43:00,45.5,41.3,30.30,WNW,295,0.0,0.0,85,0.00,,,0.00,0,Wunderground v.1.15,2013-01-24 04:43:00,
2013-01-23 23:48:00,45.5,41.3,30.29,WNW,295,0.0,0.0,85,0.00,,,0.00,0,Wunderground v.1.15,2013-01-24 04:48:00,
2013-01-23 23:58:00,45.4,41.5,30.29,WNW,295,0.0,0.0,86,0.00,,,0.00,0,Wunderground v.1.15,2013-01-24 04:58:00,